Grayson Valley, Alabama
Current Conditions -  °F | °C
As of 9:53 PM on Saturday 22 Nov 2014 (Local Time) from KBHM Reporting Station
Overcast Overcast  
Wind Chill: 58°   Ceiling: 8000
Heat Index: 58°   Visibility: 10mi
Dew Point: 49°   Wind: 13mph
Humidity: 72%   Direction: 120°ESE
Pressure: 30.13"   Gusts: 21mph
Location:  33.6283°N, 86.6434°W
Report Text: KBHM 230353Z 12011G18KT 10SM FEW027 SCT060 OVC080 14/09 A3013 RMK AO2 SLP200 T01440094
Loading
Personal Weather Stations






























Interactive Weather Map New forecast layout! Learn more

10-Day Weather Forecast

Advertisements
Track Severe Weather on mobile